Time;durP1;ratioP1;P1;durP2;ratioP2;P2;SDS_P1;SDS_P2;PMS_P1;PMS_P2;Temp;Humidity;BMP_temperature;BMP_pressure;BME280_temperature;BME280_humidity;BME280_pressure;Samples;Min_cycle;Max_cycle;Signal;HPM_P1;HPM_P2
2022/09/27 00:08:40;;;;;;;3.25;1.63;;;;;;;10.31;100.00;98584.59;20818214;28;20172;-76
2022/09/27 00:18:42;;;;;;;3.38;1.52;;;;;;;10.39;100.00;98580.72;20823540;28;20054;-78
2022/09/27 00:28:43;;;;;;;6.13;1.83;;;;;;;10.32;100.00;98575.84;20827551;28;20076;-77
2022/09/27 00:38:44;;;;;;;6.60;1.45;;;;;;;10.35;100.00;98573.94;20821376;28;20045;-77
2022/09/27 00:48:46;;;;;;;3.20;1.40;;;;;;;10.35;100.00;98570.44;20802351;28;20045;-77
2022/09/27 00:58:47;;;;;;;4.03;1.20;;;;;;;10.31;100.00;98572.38;20803346;28;20077;-77
2022/09/27 01:08:48;;;;;;;3.20;1.67;;;;;;;10.34;100.00;98585.31;20818479;28;20129;-77
2022/09/27 01:18:51;;;;;;;2.75;1.17;;;;;;;10.38;100.00;98579.03;20800025;28;20046;-77
2022/09/27 01:28:52;;;;;;;5.10;1.40;;;;;;;10.31;100.00;98585.47;20800170;28;20050;-77
2022/09/27 01:38:55;;;;;;;5.50;1.55;;;;;;;10.21;100.00;98586.75;20815573;28;20454;-76
2022/09/27 01:48:56;;;;;;;4.85;1.10;;;;;;;10.17;100.00;98603.47;20815927;28;20486;-76
2022/09/27 01:58:58;;;;;;;6.32;1.40;;;;;;;10.23;100.00;98595.38;20815798;28;20129;-76
2022/09/27 02:08:59;;;;;;;5.30;1.45;;;;;;;10.25;100.00;98601.41;20796774;28;20123;-76
2022/09/27 02:19:00;;;;;;;5.65;1.60;;;;;;;10.18;100.00;98610.41;20796488;28;20088;-75
2022/09/27 02:29:01;;;;;;;8.90;1.88;;;;;;;10.27;100.00;98616.13;20813394;28;20675;-76
2022/09/27 02:39:03;;;;;;;5.07;1.50;;;;;;;10.31;100.00;98632.53;20820665;28;20072;-77
2022/09/27 02:49:04;;;;;;;5.68;1.88;;;;;;;10.28;100.00;98633.50;20795521;28;20057;-77
2022/09/27 02:59:05;;;;;;;5.72;2.10;;;;;;;10.25;100.00;98649.34;20795269;28;20061;-77
2022/09/27 03:09:07;;;;;;;6.28;2.13;;;;;;;10.28;100.00;98645.75;20822648;28;20064;-77
2022/09/27 03:19:08;;;;;;;11.30;3.03;;;;;;;10.27;100.00;98655.34;20830434;28;20140;-77
2022/09/27 03:29:10;;;;;;;8.85;3.10;;;;;;;10.30;100.00;98661.34;20811777;28;20466;-76
2022/09/27 03:39:11;;;;;;;10.23;3.15;;;;;;;10.22;100.00;98659.91;20827872;28;20068;-76
2022/09/27 03:49:12;;;;;;;7.25;2.25;;;;;;;10.16;100.00;98667.16;20809201;28;20056;-76
2022/09/27 03:59:14;;;;;;;8.73;2.85;;;;;;;10.05;100.00;98678.03;20825472;28;20457;-77
2022/09/27 04:09:15;;;;;;;7.72;2.47;;;;;;;9.99;100.00;98691.38;20833125;23;20509;-72
2022/09/27 04:19:17;;;;;;;8.68;2.47;;;;;;;9.95;100.00;98710.72;20816519;28;20084;-71
2022/09/27 04:29:18;;;;;;;13.93;3.10;;;;;;;9.96;100.00;98726.31;20814014;28;20408;-72
2022/09/27 04:39:19;;;;;;;6.35;2.30;;;;;;;9.86;100.00;98725.00;20814284;28;20164;-73
2022/09/27 04:49:20;;;;;;;8.48;2.15;;;;;;;9.88;100.00;98744.09;20812849;28;20088;-74
2022/09/27 04:59:22;;;;;;;7.43;2.20;;;;;;;9.77;100.00;98744.53;20811879;28;20085;-73
2022/09/27 05:09:23;;;;;;;10.77;2.05;;;;;;;9.83;100.00;98760.88;20810606;28;20573;-73
2022/09/27 05:19:24;;;;;;;6.20;1.40;;;;;;;9.73;100.00;98776.06;20810646;28;20156;-74
2022/09/27 05:29:26;;;;;;;6.10;1.60;;;;;;;9.76;100.00;98775.94;20811976;28;20080;-74
2022/09/27 05:39:28;;;;;;;4.43;1.50;;;;;;;9.71;100.00;98789.19;20808391;28;20491;-75
2022/09/27 05:49:29;;;;;;;3.67;1.35;;;;;;;9.79;100.00;98807.19;20808525;28;20581;-73
2022/09/27 05:59:30;;;;;;;4.15;1.30;;;;;;;9.82;100.00;98807.09;20808523;28;20523;-73
2022/09/27 06:09:32;;;;;;;4.82;1.20;;;;;;;9.75;100.00;98813.44;20807656;28;20120;-74
2022/09/27 06:19:34;;;;;;;5.35;1.10;;;;;;;9.89;100.00;98829.47;20812923;28;20144;-76
2022/09/27 06:29:36;;;;;;;3.03;1.25;;;;;;;9.80;100.00;98853.31;20809953;28;20533;-75
2022/09/27 06:39:37;;;;;;;4.53;1.20;;;;;;;9.94;100.00;98866.72;20808189;28;20077;-76
2022/09/27 06:49:39;;;;;;;5.10;1.40;;;;;;;9.97;100.00;98873.63;20820345;28;20064;-77
2022/09/27 07:10:00;;;;;;;4.57;1.40;;;;;;;10.29;100.00;98895.94;20816006;28;20528;-77
2022/09/27 07:20:06;;;;;;;3.63;1.50;;;;;;;10.57;100.00;98911.41;20786500;28;20059;-76
2022/09/27 07:30:07;;;;;;;2.63;1.40;;;;;;;10.62;100.00;98924.31;20790152;28;20088;-75
2022/09/27 07:40:09;;;;;;;4.30;1.60;;;;;;;10.78;100.00;98941.16;20814437;28;20152;-77
2022/09/27 07:50:10;;;;;;;4.43;1.10;;;;;;;10.98;100.00;98942.97;20810795;28;20073;-77
2022/09/27 08:00:11;;;;;;;2.55;0.98;;;;;;;10.98;100.00;98958.69;20813824;28;20166;-75
2022/09/27 08:10:13;;;;;;;4.43;1.33;;;;;;;11.27;100.00;98960.94;20816181;28;20073;-76
2022/09/27 08:20:14;;;;;;;4.32;1.20;;;;;;;11.29;100.00;98953.88;20815141;28;20097;-76
2022/09/27 08:30:15;;;;;;;5.60;1.83;;;;;;;11.64;100.00;98958.53;20816037;28;20049;-76
2022/09/27 08:40:16;;;;;;;6.70;2.05;;;;;;;11.29;100.00;98953.00;20816722;28;20084;-76
2022/09/27 08:50:18;;;;;;;6.35;2.08;;;;;;;11.06;100.00;98961.81;20814306;28;20494;-75
2022/09/27 09:00:20;;;;;;;13.30;2.47;;;;;;;11.76;100.00;98958.00;20811812;28;20049;-75
2022/09/27 09:12:45;;;;;;;4.72;1.80;;;;;;;11.59;100.00;98957.88;20810180;28;20438;-75
2022/09/27 09:20:42;;;;;;;5.72;2.13;;;;;;;11.56;100.00;98951.84;20808872;28;20104;-75
2022/09/27 09:30:43;;;;;;;8.10;2.90;;;;;;;11.95;100.00;98948.44;20810914;28;20516;-75
2022/09/27 09:40:45;;;;;;;5.10;2.40;;;;;;;12.22;100.00;98951.59;20807767;28;20054;-74
2022/09/27 09:50:46;;;;;;;8.13;2.80;;;;;;;11.34;100.00;98953.66;20807876;28;20057;-74
2022/09/27 10:00:47;;;;;;;8.20;3.03;;;;;;;11.57;100.00;98964.03;20806712;28;20727;-73
2022/09/27 10:10:49;;;;;;;6.70;2.78;;;;;;;11.59;100.00;98956.09;20807396;28;20058;-74
2022/09/27 10:20:50;;;;;;;8.00;4.00;;;;;;;11.96;100.00;98955.38;20806839;28;20516;-74
2022/09/27 10:30:51;;;;;;;7.90;3.03;;;;;;;11.82;100.00;98911.41;20805758;28;20076;-74
2022/09/27 10:40:54;;;;;;;6.63;2.10;;;;;;;11.58;100.00;98912.47;20804590;28;20049;-75
2022/09/27 10:50:56;;;;;;;5.70;2.00;;;;;;;11.45;100.00;98920.03;20805248;28;20179;-74
2022/09/27 11:01:00;;;;;;;3.40;1.40;;;;;;;11.37;100.00;98909.00;20804341;28;20501;-75
2022/09/27 11:11:01;;;;;;;3.35;1.05;;;;;;;11.25;100.00;98914.75;20804245;28;20472;-74
2022/09/27 11:21:02;;;;;;;3.17;0.80;;;;;;;11.00;100.00;98915.78;20803113;28;20061;-70
2022/09/27 11:31:04;;;;;;;1.67;0.90;;;;;;;11.25;100.00;98915.59;20813885;28;20175;-71
2022/09/27 11:41:05;;;;;;;1.88;1.00;;;;;;;11.29;100.00;98911.09;20818359;28;20506;-71
2022/09/27 11:51:06;;;;;;;2.17;0.57;;;;;;;11.13;100.00;98899.56;20817690;28;20144;-72
2022/09/27 12:01:08;;;;;;;2.40;0.70;;;;;;;11.51;100.00;98880.44;20816257;28;20081;-71
2022/09/27 12:11:09;;;;;;;2.10;0.88;;;;;;;12.18;100.00;98867.84;20814707;28;20140;-71
2022/09/27 12:21:11;;;;;;;4.50;0.90;;;;;;;12.67;100.00;98873.38;20815162;28;20466;-72
2022/09/27 12:31:15;;;;;;;2.92;0.95;;;;;;;13.44;100.00;98860.72;20813171;28;20045;-72
2022/09/27 12:41:31;;;;;;;2.53;0.70;;;;;;;12.97;100.00;98856.09;20812807;28;20042;-71
2022/09/27 12:51:33;;;;;;;4.22;1.00;;;;;;;12.27;100.00;98873.50;20812870;28;20085;-71
2022/09/27 13:01:34;;;;;;;3.58;0.90;;;;;;;11.85;100.00;98868.47;20810573;28;20053;-72
2022/09/27 13:11:35;;;;;;;3.53;1.00;;;;;;;12.74;100.00;98867.75;20809309;28;20100;-74
2022/09/27 13:21:37;;;;;;;2.90;1.15;;;;;;;12.37;100.00;98873.94;20809427;28;20053;-73
2022/09/27 13:31:38;;;;;;;2.28;0.70;;;;;;;12.42;100.00;98864.06;20808894;28;20494;-74
2022/09/27 13:41:39;;;;;;;2.53;0.82;;;;;;;12.02;100.00;98870.31;20810339;28;20053;-73
2022/09/27 13:51:41;;;;;;;3.20;0.60;;;;;;;11.61;100.00;98874.78;20808055;28;20148;-72
2022/09/27 14:01:42;;;;;;;1.42;0.57;;;;;;;11.22;100.00;98859.88;20806806;28;20073;-71
2022/09/27 14:11:43;;;;;;;2.58;0.88;;;;;;;11.26;100.00;98850.97;20806830;28;20523;-73
2022/09/27 14:21:45;;;;;;;3.47;0.90;;;;;;;12.34;100.00;98850.44;20806008;28;20576;-73
2022/09/27 14:31:49;;;;;;;3.78;1.10;;;;;;;12.49;100.00;98848.84;20806604;28;20084;-73
2022/09/27 14:41:50;;;;;;;4.70;0.90;;;;;;;12.07;100.00;98861.34;20802564;28;20469;-73
2022/09/27 14:51:52;;;;;;;3.00;0.63;;;;;;;11.93;100.00;98868.09;20803479;28;20469;-73
2022/09/27 15:01:54;;;;;;;4.15;0.98;;;;;;;12.04;100.00;98877.19;20804467;28;20467;-74
2022/09/27 15:11:55;;;;;;;5.55;0.82;;;;;;;11.79;100.00;98881.84;20818038;28;20331;-75
2022/09/27 15:21:57;;;;;;;1.45;0.75;;;;;;;11.52;100.00;98891.75;20818015;28;20077;-74
2022/09/27 15:31:58;;;;;;;4.05;1.60;;;;;;;11.98;100.00;98893.22;20818181;28;20079;-73
2022/09/27 15:42:00;;;;;;;1.75;0.90;;;;;;;11.97;100.00;98899.38;20816311;28;20384;-74
2022/09/27 15:52:01;;;;;;;3.90;0.90;;;;;;;11.39;100.00;98899.28;20815374;28;20136;-74
2022/09/27 16:02:04;;;;;;;3.60;0.47;;;;;;;11.16;100.00;98899.41;20811829;28;20129;-74
2022/09/27 16:12:08;;;;;;;4.15;0.60;;;;;;;10.93;100.00;98906.47;20805347;28;20058;-73
2022/09/27 16:22:10;;;;;;;3.75;0.82;;;;;;;10.90;100.00;98924.94;20805879;28;20077;-75
2022/09/27 16:32:11;;;;;;;3.05;1.20;;;;;;;11.01;100.00;98932.34;20810617;28;20148;-74
2022/09/27 16:42:13;;;;;;;4.35;1.33;;;;;;;10.96;100.00;98940.38;20808397;28;20140;-74
2022/09/27 16:52:15;;;;;;;4.75;1.60;;;;;;;10.99;100.00;98939.41;20805647;28;20623;-74
2022/09/27 17:02:16;;;;;;;4.30;1.10;;;;;;;10.89;100.00;98943.34;20805895;28;20490;-74
2022/09/27 17:12:18;;;;;;;7.28;1.73;;;;;;;10.73;100.00;98950.91;20805154;28;20053;-75
2022/09/27 17:22:19;;;;;;;4.88;1.35;;;;;;;10.45;100.00;98959.03;20803583;28;20073;-74
2022/09/27 17:32:23;;;;;;;4.45;1.30;;;;;;;10.11;100.00;98967.22;20805195;28;20148;-74
2022/09/27 17:42:24;;;;;;;6.07;1.75;;;;;;;9.93;100.00;98956.53;20803401;28;20537;-75
2022/09/27 17:52:25;;;;;;;4.97;1.80;;;;;;;9.69;100.00;98965.25;20801313;28;20053;-75
2022/09/27 18:02:27;;;;;;;8.50;1.70;;;;;;;9.68;100.00;98963.56;20801971;28;20570;-75
2022/09/27 18:12:31;;;;;;;9.27;3.60;;;;;;;9.67;100.00;98967.91;20803267;28;20048;-73
2022/09/27 18:22:32;;;;;;;3.47;1.17;;;;;;;9.74;100.00;98977.25;20801039;28;20084;-73
2022/09/27 18:32:33;;;;;;;4.75;1.20;;;;;;;9.67;100.00;98986.19;20801862;28;20083;-73
2022/09/27 18:42:34;;;;;;;4.35;1.30;;;;;;;9.45;100.00;98988.72;20800715;28;20236;-73
2022/09/27 18:52:36;;;;;;;4.43;1.30;;;;;;;9.38;100.00;98992.41;20800358;28;20053;-74
2022/09/27 19:02:38;;;;;;;10.70;1.90;;;;;;;9.47;100.00;99005.19;20799477;28;20340;-73
2022/09/27 19:12:39;;;;;;;4.40;1.55;;;;;;;9.44;100.00;98997.47;20800602;28;20077;-73
2022/09/27 19:22:40;;;;;;;4.03;1.40;;;;;;;9.51;100.00;98988.50;20795675;28;20137;-73
2022/09/27 19:32:42;;;;;;;3.88;1.40;;;;;;;9.52;100.00;98976.28;20799530;28;20149;-73
2022/09/27 19:42:44;;;;;;;5.57;1.60;;;;;;;9.49;100.00;98961.59;20781292;28;20375;-73
2022/09/27 19:52:45;;;;;;;5.68;2.65;;;;;;;9.21;100.00;98961.66;20809213;28;20803;-74
2022/09/27 20:02:47;;;;;;;3.97;1.25;;;;;;;9.06;100.00;98941.28;20812111;28;20468;-74
2022/09/27 20:12:50;;;;;;;5.70;1.40;;;;;;;9.16;100.00;98952.28;20812295;28;20047;-74
2022/09/27 20:22:51;;;;;;;8.52;3.78;;;;;;;9.18;100.00;98925.19;20811658;28;20076;-74
2022/09/27 20:43:12;;;;;;;3.95;1.40;;;;;;;9.27;100.00;98920.56;20810077;28;20088;-74
2022/09/27 20:53:14;;;;;;;6.53;1.70;;;;;;;9.35;100.00;98903.72;20810192;28;20537;-73
2022/09/27 21:03:15;;;;;;;5.00;1.77;;;;;;;9.41;100.00;98892.22;20807131;28;20092;-73
2022/09/27 21:13:21;;;;;;;4.05;1.38;;;;;;;9.45;100.00;98876.38;20807549;28;20065;-71
2022/09/27 21:23:23;;;;;;;4.72;1.25;;;;;;;9.43;100.00;98845.97;20807266;28;20084;-71
2022/09/27 21:33:24;;;;;;;3.53;1.15;;;;;;;9.51;100.00;98839.56;20807053;28;20055;-72
2022/09/27 21:43:26;;;;;;;3.38;1.40;;;;;;;9.56;100.00;98822.88;20804891;28;20060;-73
2022/09/27 21:53:27;;;;;;;2.80;0.80;;;;;;;9.57;100.00;98806.28;20805011;28;20085;-72
2022/09/27 22:03:28;;;;;;;3.13;1.10;;;;;;;9.70;100.00;98791.84;20800988;28;20093;-71
2022/09/27 22:13:29;;;;;;;3.42;1.05;;;;;;;9.64;100.00;98776.41;20804892;28;20092;-71
2022/09/27 22:23:31;;;;;;;2.42;0.80;;;;;;;9.75;100.00;98753.31;20807126;28;20145;-71
2022/09/27 22:33:32;;;;;;;3.42;0.90;;;;;;;9.72;100.00;98737.75;20806792;28;20077;-72
2022/09/27 22:43:33;;;;;;;2.63;0.90;;;;;;;9.83;100.00;98719.91;20805271;28;20136;-72
2022/09/27 22:53:35;;;;;;;3.45;1.02;;;;;;;9.83;100.00;98690.31;20805288;28;20540;-71
2022/09/27 23:03:36;;;;;;;6.10;1.55;;;;;;;9.84;100.00;98679.78;20804138;28;20132;-72
2022/09/27 23:13:37;;;;;;;5.57;1.40;;;;;;;9.93;100.00;98662.88;20804260;28;20064;-72
2022/09/27 23:23:43;;;;;;;4.88;0.90;;;;;;;9.95;100.00;98645.34;20809344;28;20494;-71
2022/09/27 23:33:45;;;;;;;4.05;1.33;;;;;;;10.07;100.00;98628.31;20818737;28;20550;-72
2022/09/27 23:43:48;;;;;;;4.03;1.33;;;;;;;10.01;100.00;98593.69;20817791;28;20137;-70
2022/09/27 23:53:49;;;;;;;6.70;1.80;;;;;;;10.00;100.00;98581.50;20817270;28;20057;-71
